Terminal Aerodrome Forecast
Issued by NWS

Home | Current Version | Previous Version | Text Only | Print | Product List | Glossary On
Versions: 1 2 3 4 5 6 7 8 9 10 11 12 13 14 15 16 17 18 19
000
FTUS43 KAPX 130700 AAA
TAFPLN
TAF AMD
KPLN 130728Z 1307/1406 28003KT 5SM BR SCT004
      TEMPO 1308/1312 3SM BR OVC003
     FM131400 27013G21KT P6SM SCT040
     FM131900 30014G22KT P6SM FEW040
     FM140100 VRB02KT P6SM SKC=

USA.gov is the U.S. government's official web portal to all federal, state and local government web resources and services.